Time;durP1;ratioP1;P1;durP2;ratioP2;P2;SDS_P1;SDS_P2;PMS_P1;PMS_P2;Temp;Humidity;BMP_temperature;BMP_pressure;BME280_temperature;BME280_humidity;BME280_pressure;Samples;Min_cycle;Max_cycle;Signal;HPM_P1;HPM_P2
2022/02/16 00:02:11;;;;;;;1.80;1.10;;;;;;;20.36;47.62;98578.53;4993203;28;20022;-74
2022/02/16 00:04:38;;;;;;;2.75;1.13;;;;;;;20.16;48.42;98571.03;4996341;28;20098;-74
2022/02/16 00:07:04;;;;;;;1.02;0.98;;;;;;;20.42;47.58;98576.81;4996232;28;20022;-74
2022/02/16 00:09:31;;;;;;;0.70;0.70;;;;;;;20.16;48.58;98579.34;4996286;28;20477;-74
2022/02/16 00:11:57;;;;;;;1.73;0.80;;;;;;;20.39;48.23;98578.44;4996112;28;20528;-72
2022/02/16 00:14:23;;;;;;;1.63;1.02;;;;;;;20.17;49.07;98566.25;4996075;28;20113;-74
2022/02/16 00:16:49;;;;;;;4.70;0.90;;;;;;;20.17;49.36;98569.81;4996183;28;20212;-72
2022/02/16 00:19:14;;;;;;;0.95;0.70;;;;;;;20.47;48.68;98574.31;4995902;28;20022;-71
2022/02/16 00:21:40;;;;;;;3.03;0.90;;;;;;;20.46;48.96;98572.75;4995975;28;20033;-71
2022/02/16 00:24:06;;;;;;;1.25;0.80;;;;;;;20.14;50.26;98584.56;4996000;28;20038;-72
2022/02/16 00:26:32;;;;;;;1.77;0.70;;;;;;;20.30;49.87;98586.56;4995963;28;20030;-72
2022/02/16 00:28:57;;;;;;;1.38;0.77;;;;;;;20.33;50.19;98593.25;4995735;28;20101;-72
2022/02/16 00:31:23;;;;;;;1.55;0.80;;;;;;;20.51;49.72;98585.34;4995828;28;20473;-72
2022/02/16 00:33:49;;;;;;;2.45;0.93;;;;;;;20.57;49.52;98585.63;4995745;28;20034;-72
2022/02/16 00:36:14;;;;;;;2.28;1.00;;;;;;;20.17;51.04;98594.00;4995685;28;20065;-72
2022/02/16 00:38:40;;;;;;;3.05;1.02;;;;;;;20.48;50.10;98589.00;4995697;28;20030;-72
2022/02/16 00:41:06;;;;;;;3.65;0.85;;;;;;;20.30;50.89;98588.56;4995581;28;20034;-72
2022/02/16 00:43:31;;;;;;;1.25;0.70;;;;;;;20.43;50.45;98604.09;4995624;28;20030;-72
2022/02/16 00:45:57;;;;;;;2.85;0.70;;;;;;;20.89;49.24;98599.50;4995491;28;20026;-72
2022/02/16 00:48:23;;;;;;;5.78;1.42;;;;;;;20.47;50.65;98595.72;4995592;28;20117;-72
2022/02/16 00:50:49;;;;;;;2.58;1.08;;;;;;;20.75;49.77;98595.06;4995484;28;20041;-73
2022/02/16 00:53:14;;;;;;;3.92;0.98;;;;;;;20.70;49.89;98575.38;4995465;28;20088;-72
2022/02/16 00:55:40;;;;;;;3.25;1.17;;;;;;;20.70;50.05;98575.38;4995422;28;20493;-72
2022/02/16 00:58:05;;;;;;;3.75;1.05;;;;;;;20.64;50.28;98563.25;4995329;28;20027;-72
2022/02/16 01:00:35;;;;;;;5.28;1.00;;;;;;;20.48;50.55;98578.69;4995116;28;20034;-72
2022/02/16 01:03:01;;;;;;;4.75;1.33;;;;;;;20.16;51.39;98568.25;4995295;28;20053;-72
2022/02/16 01:05:26;;;;;;;3.40;0.88;;;;;;;20.17;51.96;98569.81;4995153;28;20027;-73
2022/02/16 01:07:52;;;;;;;4.95;1.25;;;;;;;20.56;50.52;98567.41;4995171;28;20113;-71
2022/02/16 01:10:19;;;;;;;4.00;1.10;;;;;;;20.66;50.38;98563.59;4995089;28;20022;-72
2022/02/16 01:12:45;;;;;;;5.55;1.88;;;;;;;20.90;49.45;98580.84;4995181;28;20418;-72
2022/02/16 01:15:11;;;;;;;3.15;0.75;;;;;;;20.80;49.40;98582.66;4995066;28;20504;-72
2022/02/16 01:17:37;;;;;;;4.97;1.30;;;;;;;20.55;50.37;98549.97;4994809;28;20054;-72
2022/02/16 01:20:05;;;;;;;4.75;0.98;;;;;;;20.78;49.91;98582.31;4994870;28;20038;-71
2022/02/16 01:22:31;;;;;;;2.60;0.95;;;;;;;20.52;50.28;98575.03;4994970;28;20034;-72
2022/02/16 01:24:57;;;;;;;4.80;1.23;;;;;;;20.60;50.35;98593.06;4994867;28;20054;-77
2022/02/16 01:27:23;;;;;;;5.50;1.52;;;;;;;20.85;49.45;98581.34;4995072;28;20108;-71
2022/02/16 01:29:48;;;;;;;5.03;1.73;;;;;;;20.33;50.61;98569.09;4994635;28;20438;-72
2022/02/16 01:32:14;;;;;;;4.82;1.38;;;;;;;20.72;49.69;98590.38;4994755;28;20121;-72
2022/02/16 01:34:40;;;;;;;7.63;2.38;;;;;;;20.49;50.18;98571.91;4994574;28;20038;-72
2022/02/16 01:37:05;;;;;;;5.03;1.48;;;;;;;20.18;50.95;98563.09;4994598;28;20038;-72
2022/02/16 01:39:31;;;;;;;5.40;1.85;;;;;;;20.50;49.73;98567.91;4994496;28;20026;-71
2022/02/16 01:41:57;;;;;;;8.30;2.45;;;;;;;20.88;48.76;98561.06;4994515;28;20026;-72
2022/02/16 01:44:23;;;;;;;7.80;2.67;;;;;;;20.80;48.68;98566.03;4994437;28;20037;-72
2022/02/16 01:46:51;;;;;;;9.18;2.17;;;;;;;20.76;48.63;98581.97;4994447;28;20113;-77
2022/02/16 01:49:17;;;;;;;10.60;2.45;;;;;;;20.39;49.10;98545.16;4994431;28;20026;-72
2022/02/16 01:51:42;;;;;;;7.78;1.90;;;;;;;20.73;48.40;98603.03;4994291;28;20084;-72
2022/02/16 01:54:09;;;;;;;5.47;1.35;;;;;;;20.53;49.08;98576.59;4994243;28;20066;-72
2022/02/16 01:56:36;;;;;;;6.95;2.38;;;;;;;20.46;49.18;98571.97;4994230;28;20023;-72
2022/02/16 01:59:02;;;;;;;6.95;2.50;;;;;;;20.43;49.00;98576.38;4994086;28;20041;-72
2022/02/16 02:01:27;;;;;;;11.77;2.00;;;;;;;20.74;48.36;98609.38;4994155;28;20031;-72
2022/02/16 02:03:53;;;;;;;6.88;2.20;;;;;;;20.70;48.64;98603.13;4994111;28;20516;-73
2022/02/16 02:06:19;;;;;;;6.25;1.73;;;;;;;20.75;47.98;98586.72;4994025;28;20046;-72
2022/02/16 02:08:45;;;;;;;5.00;1.92;;;;;;;20.69;48.18;98630.09;4993948;28;20039;-72
2022/02/16 02:11:10;;;;;;;9.15;2.35;;;;;;;20.83;47.67;98606.00;4994028;28;20038;-72
2022/02/16 02:13:36;;;;;;;8.52;3.65;;;;;;;21.09;47.11;98618.06;4993961;28;20030;-72
2022/02/16 02:16:02;;;;;;;10.27;2.10;;;;;;;20.74;47.99;98614.94;4994030;28;20069;-72
2022/02/16 02:18:28;;;;;;;6.28;1.90;;;;;;;20.36;49.18;98647.88;4993800;28;20030;-72
2022/02/16 02:20:53;;;;;;;7.45;1.92;;;;;;;20.90;47.56;98639.91;4993967;28;20448;-72
2022/02/16 02:23:19;;;;;;;10.48;2.55;;;;;;;21.05;47.03;98652.22;4993849;28;20030;-72
2022/02/16 02:25:44;;;;;;;11.30;2.80;;;;;;;20.89;47.44;98654.22;4993222;28;20031;-73
2022/02/16 02:28:11;;;;;;;10.32;3.38;;;;;;;20.70;47.77;98658.63;4993539;28;20051;-72
2022/02/16 02:30:36;;;;;;;21.00;5.00;;;;;;;20.46;48.32;98655.97;4993561;28;20022;-72
2022/02/16 02:33:02;;;;;;;17.08;3.05;;;;;;;20.36;48.14;98648.66;4993520;28;20097;-72
2022/02/16 02:35:27;;;;;;;13.57;4.20;;;;;;;20.16;48.48;98654.22;4993540;28;20033;-72
2022/02/16 02:37:53;;;;;;;13.77;3.35;;;;;;;20.35;48.11;98665.72;4993397;28;20038;-73
2022/02/16 02:40:18;;;;;;;23.27;5.15;;;;;;;20.60;47.03;98665.97;4993412;28;20031;-73
2022/02/16 02:42:44;;;;;;;16.42;4.05;;;;;;;20.43;47.31;98670.69;4993405;28;20036;-72
2022/02/16 02:45:11;;;;;;;19.65;4.70;;;;;;;20.26;47.55;98685.72;4993386;28;20355;-72
2022/02/16 02:47:37;;;;;;;17.92;5.30;;;;;;;20.48;47.03;98694.41;4993341;28;20023;-72
2022/02/16 02:50:04;;;;;;;19.17;5.07;;;;;;;20.04;47.76;98726.16;4975920;28;20386;-72
2022/02/16 02:52:31;;;;;;;18.63;5.45;;;;;;;20.25;47.32;98725.72;4975772;28;20037;-73
2022/02/16 02:54:57;;;;;;;13.02;5.20;;;;;;;20.25;47.12;98700.75;4993241;28;20400;-72
2022/02/16 02:57:22;;;;;;;16.92;5.25;;;;;;;20.70;46.42;98714.13;4993276;28;20019;-72
2022/02/16 02:59:48;;;;;;;16.90;5.22;;;;;;;20.19;47.65;98696.94;4993150;28;20085;-71
2022/02/16 03:02:14;;;;;;;20.25;5.68;;;;;;;20.68;46.20;98711.00;4975232;28;20030;-72
2022/02/16 03:04:39;;;;;;;23.63;6.57;;;;;;;20.52;46.16;98708.97;4992683;28;20483;-72
2022/02/16 03:07:05;;;;;;;21.25;5.82;;;;;;;20.40;46.25;98706.81;4992565;28;20428;-73
2022/02/16 03:09:30;;;;;;;21.88;6.53;;;;;;;20.41;46.15;98708.38;4992718;28;20030;-72
2022/02/16 03:11:56;;;;;;;21.52;6.07;;;;;;;20.59;45.54;98713.59;4992493;28;20022;-72
2022/02/16 03:14:22;;;;;;;18.13;5.68;;;;;;;20.14;46.60;98711.31;4992508;28;20031;-72
2022/02/16 03:16:47;;;;;;;22.15;6.47;;;;;;;20.31;46.19;98728.78;4992918;28;20458;-72
2022/02/16 03:19:13;;;;;;;22.27;7.50;;;;;;;20.21;46.07;98728.56;4992421;28;20026;-73
2022/02/16 03:21:38;;;;;;;27.48;6.65;;;;;;;20.40;45.69;98735.34;4992463;28;20045;-72
2022/02/16 03:24:07;;;;;;;35.85;7.75;;;;;;;20.21;45.83;98756.31;4992503;28;20035;-72
2022/02/16 03:26:33;;;;;;;25.75;6.75;;;;;;;20.17;46.14;98740.94;4992350;28;20075;-71
2022/02/16 03:28:59;;;;;;;31.45;8.93;;;;;;;20.72;44.79;98739.47;4992069;28;20051;-72
2022/02/16 03:31:25;;;;;;;32.42;8.15;;;;;;;20.51;45.15;98712.94;4992316;28;20089;-77
2022/02/16 03:33:50;;;;;;;29.15;9.45;;;;;;;19.89;46.58;98720.88;4992835;28;20085;-73
2022/02/16 03:36:16;;;;;;;34.38;8.93;;;;;;;20.02;46.15;98709.16;4992333;28;20110;-72
2022/02/16 03:38:41;;;;;;;32.60;8.93;;;;;;;20.19;45.84;98702.50;4995481;28;20109;-71
2022/02/16 03:41:07;;;;;;;41.40;11.48;;;;;;;20.30;45.38;98700.28;4996262;28;20034;-73
2022/02/16 03:43:32;;;;;;;36.55;9.55;;;;;;;19.83;46.00;98691.31;4996234;28;20030;-72
2022/02/16 03:45:58;;;;;;;41.70;9.75;;;;;;;20.39;44.58;98681.06;4996167;28;20232;-75
2022/02/16 03:48:24;;;;;;;38.38;9.43;;;;;;;20.17;45.00;98697.34;4996396;28;20019;-72
2022/02/16 03:50:49;;;;;;;31.10;9.70;;;;;;;20.32;44.78;98711.72;4996371;28;20477;-72
2022/02/16 03:53:16;;;;;;;31.58;8.20;;;;;;;20.12;44.88;98724.81;4996027;28;20026;-72
2022/02/16 03:55:42;;;;;;;42.90;8.98;;;;;;;20.51;43.94;98712.94;4996087;28;20560;-72
2022/02/16 03:58:07;;;;;;;34.67;8.52;;;;;;;19.80;45.16;98704.03;4995922;28;20109;-73
2022/02/16 04:00:33;;;;;;;34.38;9.18;;;;;;;20.23;44.10;98714.28;4996084;28;20030;-72
2022/02/16 04:03:05;;;;;;;31.83;8.85;;;;;;;19.92;44.54;98722.00;4996363;28;20030;-72
2022/02/16 04:05:31;;;;;;;32.97;8.82;;;;;;;19.55;44.85;98723.03;4996576;28;20089;-71
2022/02/16 04:07:56;;;;;;;36.90;8.40;;;;;;;19.57;44.90;98729.78;4996205;28;20030;-72
2022/02/16 04:10:22;;;;;;;36.58;9.80;;;;;;;19.80;44.11;98747.56;4996263;28;20033;-72
2022/02/16 04:12:47;;;;;;;33.95;9.18;;;;;;;19.63;44.25;98741.13;4996148;28;20030;-73
2022/02/16 04:15:14;;;;;;;34.40;9.57;;;;;;;19.76;43.95;98749.63;4996152;28;20061;-71
2022/02/16 04:17:41;;;;;;;32.63;7.68;;;;;;;19.43;44.22;98767.97;4996066;28;20031;-71
2022/02/16 04:20:08;;;;;;;29.02;8.27;;;;;;;19.70;43.16;98767.94;4996067;28;20033;-72
2022/02/16 04:22:43;;;;;;;34.30;9.40;;;;;;;19.80;43.04;98773.31;4995894;28;20026;-72
2022/02/16 04:25:09;;;;;;;28.08;7.97;;;;;;;19.80;43.25;98776.09;4996026;28;20043;-72
2022/02/16 04:27:34;;;;;;;28.73;7.70;;;;;;;19.54;43.57;98790.72;4996018;28;20025;-72
2022/02/16 04:30:00;;;;;;;41.13;10.20;;;;;;;19.72;43.35;98791.25;4995765;28;20050;-72
2022/02/16 04:32:25;;;;;;;38.65;8.68;;;;;;;19.74;43.52;98807.47;4996118;28;20022;-72
2022/02/16 04:34:51;;;;;;;39.15;9.32;;;;;;;19.68;43.95;98788.53;4995846;28;20447;-72
2022/02/16 04:37:17;;;;;;;42.10;11.10;;;;;;;19.75;44.03;98768.25;4995769;28;20377;-72
2022/02/16 04:39:42;;;;;;;29.92;9.90;;;;;;;19.81;44.15;98771.31;4995565;28;20058;-71
2022/02/16 04:42:08;;;;;;;35.85;9.88;;;;;;;19.61;45.21;98785.88;4995636;28;20389;-72
2022/02/16 04:44:33;;;;;;;44.30;10.45;;;;;;;19.76;44.95;98808.59;4995677;28;20113;-72
2022/02/16 04:46:59;;;;;;;39.28;10.25;;;;;;;19.75;45.37;98822.88;4995551;28;20030;-73
2022/02/16 04:49:24;;;;;;;31.13;10.38;;;;;;;20.24;44.25;98807.34;4995091;28;20053;-71
2022/02/16 04:51:51;;;;;;;38.42;12.48;;;;;;;20.14;44.71;98816.66;4995554;28;20034;-72
2022/02/16 04:54:16;;;;;;;36.58;11.10;;;;;;;20.04;44.97;98806.56;4995529;28;20035;-72
2022/02/16 04:56:42;;;;;;;41.78;10.75;;;;;;;20.03;45.03;98811.31;4995386;28;20106;-72
2022/02/16 04:59:07;;;;;;;58.67;12.35;;;;;;;20.11;45.03;98765.63;4995278;28;20097;-71
2022/02/16 05:01:33;;;;;;;35.88;10.25;;;;;;;19.86;45.49;98785.47;4995296;28;20038;-72
2022/02/16 05:03:59;;;;;;;34.08;10.30;;;;;;;19.74;45.51;98799.94;4995193;28;20485;-72
2022/02/16 05:06:24;;;;;;;36.17;10.27;;;;;;;19.74;45.30;98799.94;4995196;28;20064;-72
2022/02/16 05:08:50;;;;;;;37.72;11.48;;;;;;;19.65;45.37;98810.78;4995374;28;20034;-72
2022/02/16 05:11:16;;;;;;;48.42;13.55;;;;;;;19.87;44.76;98806.41;4995263;28;20543;-72
2022/02/16 05:13:42;;;;;;;42.35;10.05;;;;;;;19.20;46.20;98794.44;4995063;28;20116;-72
2022/02/16 05:16:07;;;;;;;39.72;9.95;;;;;;;19.41;45.12;98788.53;4994919;28;20069;-72
2022/02/16 05:18:33;;;;;;;37.92;9.80;;;;;;;19.27;45.06;98805.41;4995049;28;20117;-72
2022/02/16 05:21:00;;;;;;;35.45;9.63;;;;;;;19.83;43.55;98780.78;4994864;28;20045;-72
2022/02/16 05:23:26;;;;;;;28.52;9.48;;;;;;;19.41;44.29;98780.22;4994835;28;20031;-72
2022/02/16 05:25:53;;;;;;;40.78;11.15;;;;;;;19.39;43.93;98817.88;4994848;28;20030;-71
2022/02/16 05:28:20;;;;;;;35.67;11.60;;;;;;;19.62;43.37;98811.59;4994586;28;20466;-72
2022/02/16 05:30:46;;;;;;;38.17;10.02;;;;;;;19.58;43.43;98816.44;4994834;28;20061;-72
2022/02/16 05:33:11;;;;;;;46.08;11.60;;;;;;;19.40;43.44;98825.75;4994682;28;20050;-72
2022/02/16 05:35:37;;;;;;;38.22;11.27;;;;;;;19.58;43.42;98814.44;4994645;28;20034;-72
2022/02/16 05:38:03;;;;;;;39.38;12.48;;;;;;;19.17;44.52;98803.56;4994758;28;20499;-74
2022/02/16 05:40:29;;;;;;;32.17;8.27;;;;;;;19.55;43.69;98803.38;4994298;28;20511;-74
2022/02/16 05:42:54;;;;;;;34.17;9.48;;;;;;;19.49;44.06;98821.66;4994492;28;20070;-73
2022/02/16 05:45:21;;;;;;;28.10;9.18;;;;;;;19.06;45.20;98827.84;4994404;28;20027;-73
2022/02/16 05:47:47;;;;;;;38.60;10.50;;;;;;;20.03;43.31;98835.50;4994395;28;20018;-73
2022/02/16 05:50:13;;;;;;;35.15;10.55;;;;;;;19.56;44.46;98849.25;4994413;28;20036;-74
2022/02/16 05:52:38;;;;;;;41.75;10.45;;;;;;;19.16;45.18;98839.97;4994402;28;20417;-74
2022/02/16 05:55:05;;;;;;;40.38;11.07;;;;;;;19.78;43.97;98846.97;4994296;28;20030;-74
2022/02/16 05:57:32;;;;;;;44.60;10.40;;;;;;;19.27;44.93;98808.16;4990789;28;20030;-74
2022/02/16 05:59:58;;;;;;;35.55;11.07;;;;;;;19.64;44.10;98823.81;4973240;28;20037;-74
2022/02/16 06:02:24;;;;;;;38.35;9.77;;;;;;;19.31;44.36;98822.72;4974441;28;20465;-75
2022/02/16 06:04:51;;;;;;;47.38;11.30;;;;;;;19.49;44.02;98810.59;4974658;28;20113;-75
2022/02/16 06:07:16;;;;;;;35.97;11.18;;;;;;;19.23;44.66;98807.44;4974637;28;20030;-74
2022/02/16 06:09:42;;;;;;;38.65;11.10;;;;;;;19.35;44.31;98814.38;4974564;28;20030;-71
2022/02/16 06:12:08;;;;;;;41.30;11.07;;;;;;;19.14;44.47;98809.94;4974421;28;20027;-71
2022/02/16 06:14:33;;;;;;;49.08;13.23;;;;;;;19.26;44.19;98809.34;4974439;28;20031;-71
2022/02/16 06:16:59;;;;;;;41.95;13.40;;;;;;;19.48;43.62;98836.72;4974451;28;20034;-72
2022/02/16 06:19:24;;;;;;;48.10;12.43;;;;;;;19.29;43.83;98819.59;4974329;28;20442;-71
2022/02/16 06:21:50;;;;;;;44.28;11.63;;;;;;;19.40;43.74;98825.75;4974244;28;20038;-71
2022/02/16 06:24:19;;;;;;;42.20;11.35;;;;;;;19.22;44.14;98847.38;4974364;28;20402;-71
2022/02/16 06:26:45;;;;;;;30.83;10.02;;;;;;;19.26;44.25;98852.88;4974255;28;20085;-71
2022/02/16 06:29:11;;;;;;;45.88;12.50;;;;;;;19.62;43.38;98872.56;4973946;28;20406;-77
2022/02/16 06:31:36;;;;;;;31.25;8.43;;;;;;;18.84;45.40;98874.38;4974307;28;20031;-71
2022/02/16 06:34:02;;;;;;;50.65;13.27;;;;;;;19.70;43.41;98881.53;4973809;28;20022;-72
2022/02/16 06:36:28;;;;;;;52.53;12.93;;;;;;;19.79;43.22;98885.34;4974099;28;20030;-71
2022/02/16 06:38:53;;;;;;;44.42;12.38;;;;;;;19.44;43.81;98858.94;4973326;28;20054;-71
2022/02/16 06:41:21;;;;;;;50.22;14.52;;;;;;;19.58;43.85;98858.78;4973328;28;20039;-71
2022/02/16 06:43:47;;;;;;;54.38;12.52;;;;;;;19.77;43.36;98848.97;4973873;28;20390;-74
2022/02/16 06:46:13;;;;;;;46.55;13.90;;;;;;;20.19;42.35;98860.53;4973754;28;20033;-71
2022/02/16 06:48:39;;;;;;;47.25;12.98;;;;;;;20.00;42.85;98858.50;4973788;28;20043;-71
2022/02/16 06:51:04;;;;;;;53.35;13.90;;;;;;;20.29;42.09;98884.53;4973623;28;20045;-71
2022/02/16 06:53:30;;;;;;;46.95;12.52;;;;;;;20.31;41.86;98867.44;4973488;28;20035;-71
2022/02/16 06:55:56;;;;;;;45.75;15.80;;;;;;;20.40;41.77;98884.31;4973330;28;20034;-72
2022/02/16 06:58:22;;;;;;;54.90;14.25;;;;;;;20.23;41.93;98883.44;4973856;28;20023;-71
2022/02/16 07:00:47;;;;;;;48.70;15.52;;;;;;;20.28;42.03;98877.41;4973025;28;20085;-71
2022/02/16 07:03:14;;;;;;;43.35;12.07;;;;;;;20.22;42.16;98881.88;4973833;28;20027;-72
2022/02/16 07:05:41;;;;;;;47.53;13.77;;;;;;;20.24;41.84;98866.38;4973812;28;20034;-73
2022/02/16 07:08:07;;;;;;;48.15;11.43;;;;;;;20.15;42.09;98877.22;4973858;28;20029;-81
2022/02/16 07:10:32;;;;;;;46.10;13.90;;;;;;;20.20;41.68;98887.84;4973863;28;20059;-76
2022/02/16 07:12:58;;;;;;;51.20;12.68;;;;;;;20.00;42.22;98877.91;4973563;28;20050;-72
2022/02/16 07:15:24;;;;;;;50.83;15.45;;;;;;;20.02;42.16;98870.72;4973692;28;20063;-71
2022/02/16 07:17:50;;;;;;;51.38;12.23;;;;;;;20.01;42.02;98874.69;4973948;28;20023;-71
2022/02/16 07:20:16;;;;;;;69.88;16.55;;;;;;;20.05;41.99;98869.09;4973501;28;20595;-77
2022/02/16 07:22:47;;;;;;;44.58;13.75;;;;;;;20.18;41.48;98895.03;4973549;28;20425;-72
2022/02/16 07:25:14;;;;;;;45.10;12.60;;;;;;;20.33;41.15;98884.44;4973585;28;20498;-72
2022/02/16 07:27:40;;;;;;;45.58;12.98;;;;;;;20.15;41.74;98885.53;4973446;28;20027;-73
2022/02/16 07:30:09;;;;;;;38.70;12.48;;;;;;;20.33;41.21;98901.91;4973418;28;20045;-71
2022/02/16 07:32:39;;;;;;;42.47;13.32;;;;;;;19.84;42.10;98887.66;4973538;28;20030;-71
2022/02/16 07:35:11;;;;;;;48.72;12.65;;;;;;;19.95;42.13;98893.81;4956257;28;20413;-73
2022/02/16 07:37:37;;;;;;;43.50;12.32;;;;;;;19.99;42.16;98890.19;4973534;28;20049;-72
2022/02/16 07:40:04;;;;;;;43.20;12.77;;;;;;;20.22;41.52;98907.59;4973721;28;20031;-71
2022/02/16 07:42:30;;;;;;;51.47;14.05;;;;;;;20.21;41.53;98910.81;4973429;28;20041;-71
2022/02/16 07:44:56;;;;;;;49.28;13.05;;;;;;;20.35;41.19;98932.75;4973450;28;20031;-72
2022/02/16 07:47:23;;;;;;;49.55;12.73;;;;;;;20.38;41.32;98931.13;4973302;28;20035;-73
2022/02/16 07:49:49;;;;;;;46.05;11.98;;;;;;;20.29;41.56;98923.34;4973322;28;20034;-70
2022/02/16 07:52:14;;;;;;;50.53;12.85;;;;;;;20.35;41.46;98916.13;4973328;28;20485;-71
2022/02/16 07:54:41;;;;;;;41.03;10.73;;;;;;;20.33;41.43;98921.31;4973367;28;20030;-71
2022/02/16 07:57:06;;;;;;;44.03;12.88;;;;;;;20.40;41.49;98917.59;4973325;28;20023;-71
2022/02/16 07:59:32;;;;;;;37.70;11.90;;;;;;;20.44;41.30;98910.81;4973218;28;20371;-76
2022/02/16 08:01:58;;;;;;;49.40;11.30;;;;;;;20.45;41.46;98886.63;4973263;28;20038;-71
2022/02/16 08:04:25;;;;;;;49.13;12.73;;;;;;;20.27;41.96;98903.59;4973242;28;20542;-71
2022/02/16 08:06:51;;;;;;;45.70;11.50;;;;;;;20.58;41.23;98895.91;4973141;28;20022;-70
2022/02/16 08:09:17;;;;;;;45.88;13.50;;;;;;;20.43;41.61;98911.22;4973092;28;20027;-71
2022/02/16 08:11:45;;;;;;;47.15;12.57;;;;;;;20.58;41.26;98897.91;4972843;28;20023;-71
2022/02/16 08:14:11;;;;;;;52.85;11.93;;;;;;;20.41;41.95;98897.78;4972102;28;20022;-72
2022/02/16 08:16:37;;;;;;;39.55;11.40;;;;;;;20.38;42.02;98897.84;4973150;28;20509;-72
2022/02/16 08:19:05;;;;;;;47.00;13.50;;;;;;;20.63;41.59;98887.13;4972088;28;20473;-71
2022/02/16 08:21:31;;;;;;;37.22;10.98;;;;;;;20.71;41.60;98882.22;4971978;28;20485;-70
2022/02/16 08:23:57;;;;;;;42.55;12.25;;;;;;;20.57;42.07;98874.16;4973852;28;20033;-75
2022/02/16 08:26:23;;;;;;;51.25;12.93;;;;;;;20.73;41.65;98879.78;4957568;28;20027;-73
2022/02/16 08:28:48;;;;;;;48.45;13.43;;;;;;;20.84;41.27;98888.66;4975596;28;20087;-71
2022/02/16 08:31:14;;;;;;;46.33;12.75;;;;;;;20.95;41.16;98897.56;4975945;28;20049;-70
2022/02/16 08:33:40;;;;;;;40.67;12.65;;;;;;;20.59;42.02;98882.81;4974548;28;20046;-71
2022/02/16 08:36:06;;;;;;;40.33;12.27;;;;;;;20.96;41.25;98885.25;4973746;28;20027;-71
2022/02/16 08:38:32;;;;;;;47.08;13.43;;;;;;;20.88;41.54;98877.50;4974481;28;20023;-70
2022/02/16 08:40:58;;;;;;;40.00;12.00;;;;;;;20.76;41.79;98884.47;4975790;28;20126;-71
2022/02/16 08:43:25;;;;;;;43.72;11.90;;;;;;;21.05;41.28;98868.03;4975823;28;20035;-77
2022/02/16 08:45:50;;;;;;;43.80;13.57;;;;;;;21.01;41.29;98840.34;4975377;28;20381;-70
2022/02/16 08:48:16;;;;;;;52.85;13.73;;;;;;;21.18;40.94;98841.16;4975593;28;20031;-71
2022/02/16 08:50:41;;;;;;;41.20;11.93;;;;;;;21.22;41.07;98833.53;4975381;28;20057;-71
2022/02/16 08:53:07;;;;;;;42.45;10.45;;;;;;;21.24;40.91;98797.00;4966575;28;20038;-71
2022/02/16 08:55:33;;;;;;;44.78;12.32;;;;;;;21.31;41.00;98786.53;4975425;28;20035;-71
2022/02/16 08:57:58;;;;;;;41.67;11.75;;;;;;;21.30;41.31;98792.50;4975561;28;20026;-71
2022/02/16 09:00:24;;;;;;;39.38;12.32;;;;;;;21.45;40.91;98802.06;4973071;28;20026;-72
2022/02/16 09:02:51;;;;;;;39.28;11.98;;;;;;;21.47;41.03;98801.66;4974411;28;20240;-71
2022/02/16 09:05:17;;;;;;;46.58;12.57;;;;;;;21.55;40.72;98776.03;4975261;28;20031;-71
2022/02/16 09:07:43;;;;;;;43.13;12.52;;;;;;;21.49;41.14;98790.88;4975854;28;20486;-71
2022/02/16 09:10:11;;;;;;;43.15;12.27;;;;;;;21.52;40.90;98795.56;4975561;28;20046;-73
2022/02/16 09:12:37;;;;;;;39.70;11.65;;;;;;;21.45;41.30;98781.84;4975723;28;20494;-70
2022/02/16 09:15:04;;;;;;;50.95;12.57;;;;;;;21.64;40.81;98774.66;4975560;28;20480;-73
2022/02/16 09:17:30;;;;;;;43.72;12.65;;;;;;;21.70;40.54;98784.81;4975532;28;20041;-70
2022/02/16 09:19:56;;;;;;;36.90;11.02;;;;;;;21.50;41.00;98776.56;4975420;28;20122;-71
2022/02/16 09:22:23;;;;;;;47.38;11.85;;;;;;;21.71;40.69;98750.22;4975555;28;20398;-71
2022/02/16 09:24:49;;;;;;;36.25;11.48;;;;;;;21.46;41.15;98748.09;4975564;28;20035;-71
2022/02/16 09:27:16;;;;;;;47.30;13.18;;;;;;;21.72;40.57;98751.00;4975380;28;20030;-71
2022/02/16 09:29:42;;;;;;;43.65;11.30;;;;;;;21.73;40.77;98744.22;4974931;28;20049;-72
2022/02/16 09:32:08;;;;;;;43.90;10.80;;;;;;;21.60;41.26;98722.69;4975326;28;20492;-71
2022/02/16 09:34:34;;;;;;;38.58;10.43;;;;;;;21.77;40.93;98723.47;4974320;28;20030;-71
2022/02/16 09:37:00;;;;;;;39.55;10.75;;;;;;;21.75;41.17;98739.78;4974933;28;20401;-71
2022/02/16 09:39:25;;;;;;;41.30;10.35;;;;;;;21.73;41.18;98753.34;4975114;28;20030;-71
2022/02/16 09:41:51;;;;;;;35.40;11.27;;;;;;;21.63;42.06;98750.84;4974842;28;20035;-72
2022/02/16 09:44:28;;;;;;;37.85;10.82;;;;;;;21.77;41.85;98756.84;4975043;28;20038;-70
2022/02/16 09:46:53;;;;;;;37.10;10.25;;;;;;;21.77;42.05;98740.16;4973100;28;20037;-70
2022/02/16 09:49:19;;;;;;;37.10;10.23;;;;;;;21.66;42.43;98733.31;4974971;28;20035;-70
2022/02/16 09:51:44;;;;;;;39.67;10.45;;;;;;;21.74;42.33;98698.53;4973538;28;20026;-70
2022/02/16 09:54:12;;;;;;;43.28;12.40;;;;;;;21.64;42.73;98705.16;4974896;28;20026;-70
2022/02/16 09:56:42;;;;;;;41.28;9.93;;;;;;;21.60;42.97;98708.03;4974785;28;20078;-70
2022/02/16 09:59:07;;;;;;;36.22;9.88;;;;;;;21.70;42.79;98689.53;4974644;28;20035;-70
2022/02/16 10:01:58;;;;;;;30.40;8.75;;;;;;;21.49;43.82;98697.19;4959120;28;20077;-72
2022/02/16 10:04:28;;;;;;;35.78;9.45;;;;;;;21.41;43.87;98670.81;4974722;28;20023;-75
2022/02/16 10:06:54;;;;;;;37.38;9.18;;;;;;;21.50;43.75;98681.31;4974266;28;20027;-70
2022/02/16 10:09:30;;;;;;;38.47;9.02;;;;;;;21.28;44.73;98664.41;4974574;28;20030;-73
2022/02/16 10:12:01;;;;;;;32.30;10.02;;;;;;;21.35;44.55;98655.09;4972919;28;20053;-70
2022/02/16 10:14:32;;;;;;;26.85;7.97;;;;;;;21.42;44.56;98646.59;4974611;28;20386;-71
2022/02/16 10:17:04;;;;;;;34.70;9.32;;;;;;;21.54;44.28;98663.34;4974443;28;20026;-71
2022/02/16 10:19:50;;;;;;;30.33;8.88;;;;;;;21.32;45.27;98656.78;4974724;28;20081;-69
2022/02/16 10:22:17;;;;;;;28.20;9.15;;;;;;;21.35;45.04;98641.22;4974427;28;20035;-70
2022/02/16 10:24:44;;;;;;;27.08;7.07;;;;;;;21.40;45.10;98627.59;4974316;28;20031;-69
2022/02/16 10:27:12;;;;;;;29.58;7.25;;;;;;;21.49;44.75;98613.84;4974217;28;20093;-70
2022/02/16 10:29:40;;;;;;;26.02;7.68;;;;;;;21.53;44.88;98603.41;4973767;28;20103;-70
2022/02/16 10:32:06;;;;;;;27.92;7.97;;;;;;;21.65;44.94;98606.69;4973991;28;20042;-71
2022/02/16 10:34:48;;;;;;;25.35;6.28;;;;;;;21.50;45.65;98592.41;4974155;28;20498;-71
2022/02/16 10:37:16;;;;;;;19.27;5.53;;;;;;;21.62;45.64;98599.25;4974161;28;20022;-70
2022/02/16 10:39:41;;;;;;;21.52;6.90;;;;;;;21.69;45.49;98585.91;4973981;28;20410;-71
2022/02/16 10:42:13;;;;;;;19.52;5.53;;;;;;;21.70;45.76;98579.13;4973977;28;20078;-70
2022/02/16 10:44:40;;;;;;;22.15;5.47;;;;;;;21.73;45.84;98569.91;4973988;28;20033;-71
2022/02/16 10:47:11;;;;;;;25.45;5.03;;;;;;;21.72;46.43;98560.00;4973693;28;20023;-70
2022/02/16 10:49:39;;;;;;;18.95;4.55;;;;;;;21.85;45.90;98577.50;4974008;28;20014;-70
2022/02/16 10:52:21;;;;;;;19.85;4.70;;;;;;;21.76;46.50;98584.91;4973737;28;20097;-70
2022/02/16 10:54:58;;;;;;;12.98;3.92;;;;;;;21.74;47.00;98562.34;4973912;28;20089;-71
2022/02/16 10:57:25;;;;;;;10.00;2.95;;;;;;;21.95;46.44;98555.41;4973219;28;20081;-70
2022/02/16 10:59:51;;;;;;;15.13;3.70;;;;;;;22.02;46.51;98561.53;4973254;28;20027;-74
2022/02/16 11:02:18;;;;;;;11.75;3.60;;;;;;;22.06;46.60;98551.06;4973716;28;20034;-71
2022/02/16 11:04:46;;;;;;;14.63;3.85;;;;;;;21.92;47.16;98507.03;4973781;28;20034;-74
2022/02/16 11:07:13;;;;;;;13.60;2.47;;;;;;;22.18;46.70;98518.97;4973667;28;20037;-71
2022/02/16 11:09:41;;;;;;;4.80;1.50;;;;;;;22.15;46.97;98522.63;4973530;28;20104;-71
2022/02/16 11:12:07;;;;;;;7.13;1.40;;;;;;;22.08;47.32;98534.75;4973594;28;20405;-70
2022/02/16 11:14:35;;;;;;;6.40;1.95;;;;;;;21.82;48.51;98542.25;4973514;28;20035;-70
2022/02/16 11:17:01;;;;;;;3.50;1.55;;;;;;;22.10;47.73;98539.88;4973619;28;20030;-70
2022/02/16 11:19:32;;;;;;;4.18;1.20;;;;;;;22.14;47.78;98530.19;4973565;28;20038;-69
2022/02/16 11:22:08;;;;;;;5.00;1.10;;;;;;;21.70;49.32;98529.13;4973720;28;20426;-71